createdAt,value
2023-01-17T00:02:27.138Z,0.54
2023-01-17T00:05:12.989Z,0.57
2023-01-17T00:07:58.600Z,0.63
2023-01-17T00:10:30.926Z,0.68
2023-01-17T00:13:03.543Z,0.71
2023-01-17T00:15:34.647Z,0.72
2023-01-17T00:18:01.698Z,0.72
2023-01-17T00:20:49.048Z,0.74
2023-01-17T00:23:43.102Z,0.77
2023-01-17T00:26:14.952Z,0.79
2023-01-17T00:28:43.105Z,0.79
2023-01-17T00:31:12.937Z,0.79
2023-01-17T00:33:42.874Z,0.80
2023-01-17T00:36:11.359Z,0.83
2023-01-17T00:38:39.563Z,0.87
2023-01-17T00:41:09.883Z,0.88
2023-01-17T00:43:55.973Z,0.92
2023-01-17T00:46:42.159Z,0.91
2023-01-17T00:49:27.786Z,0.92
2023-01-17T00:52:14.032Z,0.98
2023-01-17T00:54:59.899Z,0.96
2023-01-17T00:57:45.935Z,0.96
2023-01-17T01:00:32.138Z,0.93
2023-01-17T01:03:18.206Z,0.90
2023-01-17T01:06:03.867Z,0.87
2023-01-17T01:08:49.632Z,0.84
2023-01-17T01:11:38.786Z,0.81
2023-01-17T01:14:27.147Z,0.80
2023-01-17T01:17:13.197Z,0.80
2023-01-17T01:19:58.774Z,0.83
2023-01-17T01:22:44.448Z,0.83
2023-01-17T01:25:30.799Z,0.83
2023-01-17T01:28:23.796Z,0.85
2023-01-17T01:31:09.748Z,0.86
2023-01-17T01:33:36.931Z,0.86
2023-01-17T01:36:07.493Z,0.89
2023-01-17T01:38:34.535Z,0.92
2023-01-17T01:41:01.969Z,0.90
2023-01-17T01:43:47.509Z,0.90
2023-01-17T01:46:28.961Z,0.91
2023-01-17T01:49:08.635Z,0.92
2023-01-17T01:51:42.672Z,0.91
2023-01-17T01:54:20.481Z,0.96
2023-01-17T01:56:52.925Z,0.93
2023-01-17T01:59:21.520Z,0.94
2023-01-17T02:01:51.574Z,0.94
2023-01-17T02:04:20.021Z,0.96
2023-01-17T02:06:53.666Z,0.96
2023-01-17T02:09:21.090Z,1.01
2023-01-17T02:11:49.763Z,1.02
2023-01-17T02:14:18.208Z,0.99
2023-01-17T02:16:48.905Z,1.04
2023-01-17T02:19:28.095Z,1.01
2023-01-17T02:22:07.579Z,1.02
2023-01-17T02:24:49.080Z,0.98
2023-01-17T02:27:26.986Z,1.00
2023-01-17T02:30:15.442Z,0.98
2023-01-17T02:33:04.080Z,0.97
2023-01-17T02:35:54.679Z,0.91
2023-01-17T02:38:31.678Z,0.91
2023-01-17T02:41:07.926Z,0.94
2023-01-17T02:43:37.507Z,0.95
2023-01-17T02:46:04.696Z,0.93
2023-01-17T02:48:36.472Z,0.94
2023-01-17T02:51:22.521Z,0.92
2023-01-17T02:54:05.091Z,0.93
2023-01-17T02:56:44.663Z,0.93
2023-01-17T02:59:15.052Z,0.92
2023-01-17T03:01:57.284Z,0.91
2023-01-17T03:04:28.500Z,0.88
2023-01-17T03:07:01.416Z,0.89
2023-01-17T03:09:30.864Z,0.88
2023-01-17T03:11:59.352Z,0.88
2023-01-17T03:14:31.335Z,0.87
2023-01-17T03:17:01.014Z,0.87
2023-01-17T03:19:28.268Z,0.86
2023-01-17T03:21:57.873Z,0.84
2023-01-17T03:24:25.173Z,0.84
2023-01-17T03:26:56.948Z,0.83
2023-01-17T03:29:24.275Z,0.79
2023-01-17T03:31:51.284Z,0.81
2023-01-17T03:34:18.647Z,0.83
2023-01-17T03:36:45.632Z,0.88
2023-01-17T03:39:12.866Z,0.89
2023-01-17T03:41:39.915Z,0.86
2023-01-17T03:44:07.207Z,0.86
2023-01-17T03:46:34.229Z,0.87
2023-01-17T03:49:04.570Z,0.91
2023-01-17T03:51:31.617Z,0.91
2023-01-17T03:53:59.235Z,0.93
2023-01-17T03:56:28.741Z,0.96
2023-01-17T03:58:58.542Z,0.97
2023-01-17T04:01:27.971Z,0.99
2023-01-17T04:03:55.471Z,1.02
2023-01-17T04:06:24.711Z,1.03
2023-01-17T04:08:51.957Z,1.04
2023-01-17T04:11:18.989Z,1.05
2023-01-17T04:13:46.273Z,1.00
2023-01-17T04:16:17.730Z,0.99
2023-01-17T04:18:45.152Z,1.00
2023-01-17T04:21:12.205Z,0.99
2023-01-17T04:23:39.591Z,0.99
2023-01-17T04:26:06.962Z,0.95
2023-01-17T04:28:34.327Z,0.94
2023-01-17T04:31:01.368Z,0.95
2023-01-17T04:33:29.332Z,0.92
2023-01-17T04:35:56.779Z,0.91
2023-01-17T04:38:24.624Z,0.91
2023-01-17T04:40:54.429Z,0.91
2023-01-17T04:43:22.212Z,0.91
2023-01-17T04:45:55.113Z,0.90
2023-01-17T04:48:22.449Z,0.90
2023-01-17T04:50:49.645Z,0.87
2023-01-17T04:53:16.968Z,0.88
2023-01-17T04:55:47.171Z,0.89
2023-01-17T04:58:14.528Z,0.89
2023-01-17T05:00:41.489Z,0.85
2023-01-17T05:03:08.843Z,0.84
2023-01-17T05:05:35.849Z,0.83
2023-01-17T05:08:03.226Z,0.81
2023-01-17T05:10:30.267Z,0.80
2023-01-17T05:12:59.550Z,0.79
2023-01-17T05:15:27.524Z,0.76
2023-01-17T05:17:58.054Z,0.75
2023-01-17T05:20:26.888Z,0.73
2023-01-17T05:22:58.155Z,0.72
2023-01-17T05:25:27.731Z,0.70
2023-01-17T05:27:55.609Z,0.70
2023-01-17T05:30:24.850Z,0.70
2023-01-17T05:32:54.940Z,0.70
2023-01-17T05:35:25.125Z,0.71
2023-01-17T05:37:52.992Z,0.73
2023-01-17T05:40:25.274Z,0.77
2023-01-17T05:42:55.160Z,0.79
2023-01-17T05:45:23.925Z,0.78
2023-01-17T05:47:52.971Z,0.77
2023-01-17T05:50:26.033Z,0.74
2023-01-17T05:53:02.095Z,0.69
2023-01-17T05:55:29.497Z,0.63
2023-01-17T05:57:57.436Z,0.60
2023-01-17T06:00:25.114Z,0.60
2023-01-17T06:02:57.265Z,0.55
2023-01-17T06:05:28.395Z,0.52
2023-01-17T06:07:56.635Z,0.52
2023-01-17T06:10:24.526Z,0.51
2023-01-17T06:13:05.012Z,0.50
2023-01-17T06:15:34.760Z,0.50
2023-01-17T06:18:13.379Z,0.54
2023-01-17T06:20:40.863Z,0.56
2023-01-17T06:23:11.806Z,0.57
2023-01-17T06:25:44.261Z,0.64
2023-01-17T06:28:13.721Z,0.66
2023-01-17T06:30:41.125Z,0.66
2023-01-17T06:33:08.485Z,0.78
2023-01-17T06:35:37.712Z,0.80
2023-01-17T06:38:05.222Z,0.81
2023-01-17T06:40:32.408Z,0.91
2023-01-17T06:43:01.797Z,0.91
2023-01-17T06:45:29.990Z,0.93
2023-01-17T06:47:59.310Z,0.94
2023-01-17T06:50:27.272Z,0.94
2023-01-17T06:53:03.014Z,0.91
2023-01-17T06:55:33.717Z,0.92
2023-01-17T06:58:03.151Z,0.94
2023-01-17T07:00:35.311Z,1.04
2023-01-17T07:03:02.888Z,1.03
2023-01-17T07:05:29.973Z,1.06
2023-01-17T07:07:58.055Z,1.08
2023-01-17T07:10:25.297Z,1.18
2023-01-17T07:13:00.757Z,1.25
2023-01-17T07:15:28.234Z,1.29
2023-01-17T07:17:55.491Z,1.30
2023-01-17T07:20:22.497Z,1.29
2023-01-17T07:22:49.835Z,1.28
2023-01-17T07:25:17.239Z,1.25
2023-01-17T07:27:45.718Z,1.24
2023-01-17T07:30:13.437Z,1.22
2023-01-17T07:32:40.808Z,1.19
2023-01-17T07:35:08.196Z,1.19
2023-01-17T07:37:35.556Z,1.19
2023-01-17T07:40:03.193Z,1.20
2023-01-17T07:42:30.511Z,1.16
2023-01-17T07:44:57.538Z,1.13
2023-01-17T07:47:24.937Z,1.14
2023-01-17T07:49:51.968Z,1.14
2023-01-17T07:52:19.253Z,1.14
2023-01-17T07:54:46.315Z,1.27
2023-01-17T07:57:15.699Z,1.35
2023-01-17T07:59:42.675Z,1.45
2023-01-17T08:02:23.607Z,1.57
2023-01-17T08:04:50.746Z,1.66
2023-01-17T08:07:18.014Z,1.79
2023-01-17T08:09:49.684Z,1.83
2023-01-17T08:12:17.195Z,1.85
2023-01-17T08:14:46.632Z,1.87
2023-01-17T08:17:18.185Z,1.91
2023-01-17T08:19:45.192Z,1.94
2023-01-17T08:22:12.780Z,1.97
2023-01-17T08:24:39.867Z,2.03
2023-01-17T08:27:08.999Z,2.11
2023-01-17T08:29:36.049Z,2.23
2023-01-17T08:32:04.123Z,2.38
2023-01-17T08:34:33.778Z,2.53
2023-01-17T08:37:01.116Z,2.67
2023-01-17T08:39:28.811Z,2.84
2023-01-17T08:41:57.451Z,2.93
2023-01-17T08:44:24.664Z,3.02
2023-01-17T08:46:54.576Z,3.12
2023-01-17T08:49:21.527Z,3.20
2023-01-17T08:51:48.821Z,3.28
2023-01-17T08:54:18.952Z,3.59
2023-01-17T08:56:49.154Z,3.91
2023-01-17T08:59:16.215Z,4.08
2023-01-17T09:01:46.038Z,4.21
2023-01-17T09:04:14.360Z,4.33
2023-01-17T09:06:45.309Z,4.45
2023-01-17T09:09:13.697Z,4.55
2023-01-17T09:11:41.075Z,4.61
2023-01-17T09:14:12.280Z,4.67
2023-01-17T09:16:39.678Z,4.73
2023-01-17T09:19:06.735Z,4.77
2023-01-17T09:21:34.090Z,4.78
2023-01-17T09:24:02.211Z,4.70
2023-01-17T09:26:30.472Z,4.70
2023-01-17T09:28:58.778Z,4.74
2023-01-17T09:31:28.855Z,4.69
2023-01-17T09:33:57.578Z,4.62
2023-01-17T09:36:28.914Z,4.56
2023-01-17T09:38:57.960Z,4.56
2023-01-17T09:41:27.955Z,4.46
2023-01-17T09:43:57.993Z,4.44
2023-01-17T09:46:41.328Z,4.44
2023-01-17T09:49:32.787Z,4.42
2023-01-17T09:52:00.695Z,4.47
2023-01-17T09:54:35.835Z,4.54
2023-01-17T09:57:26.529Z,4.64
2023-01-17T10:00:03.147Z,4.75
2023-01-17T10:02:45.864Z,4.83
2023-01-17T10:05:28.613Z,4.89
2023-01-17T10:07:58.746Z,4.88
2023-01-17T10:10:36.509Z,5.05
2023-01-17T10:13:33.182Z,5.18
2023-01-17T10:16:41.860Z,5.25
2023-01-17T10:19:09.175Z,5.32
2023-01-17T10:21:59.219Z,5.47
2023-01-17T10:24:54.516Z,5.76
2023-01-17T10:27:34.886Z,6.04
2023-01-17T10:30:11.195Z,6.23
2023-01-17T10:32:46.730Z,6.38
2023-01-17T10:35:27.041Z,6.54
2023-01-17T10:37:57.287Z,6.55
2023-01-17T10:40:30.873Z,6.61
2023-01-17T10:43:03.033Z,6.74
2023-01-17T10:45:36.203Z,6.89
2023-01-17T10:48:40.837Z,6.94
2023-01-17T10:51:22.027Z,6.92
2023-01-17T10:53:56.958Z,6.96
2023-01-17T10:56:28.257Z,6.95
2023-01-17T10:59:20.132Z,7.05
2023-01-17T11:01:49.697Z,7.08
2023-01-17T11:04:27.069Z,7.10
2023-01-17T11:07:29.584Z,7.08
2023-01-17T11:09:58.425Z,7.05
2023-01-17T11:12:45.928Z,7.06
2023-01-17T11:15:19.947Z,6.92
2023-01-17T11:18:00.621Z,6.95
2023-01-17T11:20:39.444Z,6.77
2023-01-17T11:23:17.514Z,6.75
2023-01-17T11:25:58.572Z,6.56
2023-01-17T11:28:32.899Z,6.51
2023-01-17T11:31:04.365Z,6.51
2023-01-17T11:33:55.686Z,6.43
2023-01-17T11:36:31.107Z,6.38
2023-01-17T11:39:07.316Z,6.50
2023-01-17T11:41:39.791Z,6.48
2023-01-17T11:44:27.947Z,6.51
2023-01-17T11:47:12.728Z,6.46
2023-01-17T11:49:42.309Z,6.47
2023-01-17T11:52:27.371Z,6.49
2023-01-17T11:54:55.997Z,6.55
2023-01-17T11:57:27.961Z,6.60
2023-01-17T12:00:15.479Z,6.68
2023-01-17T12:03:15.314Z,6.69
2023-01-17T12:06:13.610Z,6.57
2023-01-17T12:09:01.424Z,6.55
2023-01-17T12:12:11.358Z,6.46
2023-01-17T12:14:45.774Z,6.43
2023-01-17T12:17:39.081Z,6.48
2023-01-17T12:20:18.021Z,6.58
2023-01-17T12:22:51.399Z,6.69
2023-01-17T12:25:34.631Z,6.62
2023-01-17T12:28:34.268Z,6.65
2023-01-17T12:31:10.492Z,6.51
2023-01-17T12:34:15.707Z,6.41
2023-01-17T12:37:11.884Z,6.36
2023-01-17T12:39:43.401Z,6.37
2023-01-17T12:42:22.984Z,6.42
2023-01-17T12:44:57.897Z,6.45
2023-01-17T12:47:25.729Z,6.34
2023-01-17T12:50:17.030Z,6.36
2023-01-17T12:52:53.085Z,6.36
2023-01-17T12:55:44.354Z,6.35
2023-01-17T12:58:21.169Z,6.38
2023-01-17T13:00:56.647Z,6.32
2023-01-17T13:03:45.115Z,6.32
2023-01-17T13:06:25.059Z,6.34
2023-01-17T13:08:58.254Z,6.44
2023-01-17T13:11:38.330Z,6.54
2023-01-17T13:14:09.186Z,6.63
2023-01-17T13:16:57.935Z,6.65
2023-01-17T13:19:48.419Z,6.68
2023-01-17T13:22:18.346Z,6.63
2023-01-17T13:24:52.359Z,6.65
2023-01-17T13:27:27.903Z,6.69
2023-01-17T13:30:15.377Z,6.68
2023-01-17T13:33:21.637Z,6.66
2023-01-17T13:36:11.856Z,6.67
2023-01-17T13:38:57.746Z,6.59
2023-01-17T13:41:34.126Z,6.52
2023-01-17T13:44:21.327Z,6.46
2023-01-17T13:47:04.547Z,6.40
2023-01-17T13:49:34.652Z,6.28
2023-01-17T13:52:28.153Z,6.29
2023-01-17T13:55:01.423Z,6.26
2023-01-17T13:57:30.428Z,6.22
2023-01-17T14:00:00.122Z,6.19
2023-01-17T14:02:33.281Z,6.11
2023-01-17T14:05:17.564Z,6.09
2023-01-17T14:07:44.521Z,6.07
2023-01-17T14:10:32.446Z,6.00
2023-01-17T14:12:59.751Z,5.99
2023-01-17T14:15:28.806Z,5.96
2023-01-17T14:18:00.956Z,5.91
2023-01-17T14:20:34.324Z,5.90
2023-01-17T14:23:10.962Z,5.90
2023-01-17T14:25:40.459Z,5.91
2023-01-17T14:28:26.292Z,5.91
2023-01-17T14:30:56.107Z,5.86
2023-01-17T14:33:30.456Z,5.84
2023-01-17T14:36:01.478Z,5.77
2023-01-17T14:38:31.718Z,5.77
2023-01-17T14:41:01.256Z,5.72
2023-01-17T14:43:33.068Z,5.70
2023-01-17T14:46:04.309Z,5.65
2023-01-17T14:48:31.784Z,5.63
2023-01-17T14:51:00.358Z,5.61
2023-01-17T14:53:29.499Z,5.57
2023-01-17T14:56:18.428Z,5.54
2023-01-17T14:58:48.288Z,5.51
2023-01-17T15:01:20.584Z,5.46
2023-01-17T15:03:55.253Z,5.43
2023-01-17T15:06:33.201Z,5.36
2023-01-17T15:09:03.466Z,5.32
2023-01-17T15:11:36.181Z,5.29
2023-01-17T15:14:06.013Z,5.26
2023-01-17T15:16:36.335Z,5.22
2023-01-17T15:19:11.427Z,5.22
2023-01-17T15:21:42.690Z,5.20
2023-01-17T15:24:15.935Z,5.20
2023-01-17T15:26:44.059Z,5.17
2023-01-17T15:29:18.847Z,5.10
2023-01-17T15:31:50.496Z,5.13
2023-01-17T15:34:32.077Z,5.08
2023-01-17T15:37:08.484Z,5.07
2023-01-17T15:39:39.030Z,5.06
2023-01-17T15:42:22.920Z,5.06
2023-01-17T15:44:55.818Z,5.03
2023-01-17T15:47:32.818Z,5.08
2023-01-17T15:50:01.416Z,5.05
2023-01-17T15:52:29.804Z,5.05
2023-01-17T15:55:12.495Z,5.03
2023-01-17T15:57:40.270Z,5.03
2023-01-17T16:00:21.631Z,5.02
2023-01-17T16:02:57.904Z,5.06
2023-01-17T16:05:25.166Z,5.02
2023-01-17T16:07:56.475Z,4.95
2023-01-17T16:10:36.351Z,4.97
2023-01-17T16:13:05.828Z,4.94
2023-01-17T16:15:37.537Z,4.92
2023-01-17T16:18:09.986Z,4.92
2023-01-17T16:20:44.822Z,4.87
2023-01-17T16:23:12.505Z,4.88
2023-01-17T16:25:39.569Z,4.84
2023-01-17T16:28:07.167Z,4.75
2023-01-17T16:30:34.647Z,4.62
2023-01-17T16:33:03.720Z,4.53
2023-01-17T16:35:33.597Z,4.44
2023-01-17T16:38:07.153Z,4.38
2023-01-17T16:40:41.570Z,4.33
2023-01-17T16:43:12.202Z,4.25
2023-01-17T16:45:44.141Z,4.21
2023-01-17T16:48:12.641Z,4.12
2023-01-17T16:50:48.404Z,4.05
2023-01-17T16:53:21.522Z,3.99
2023-01-17T16:55:56.281Z,3.96
2023-01-17T16:58:24.016Z,3.94
2023-01-17T17:00:51.881Z,3.92
2023-01-17T17:03:21.336Z,3.96
2023-01-17T17:06:00.122Z,3.97
2023-01-17T17:08:29.857Z,3.97
2023-01-17T17:11:18.983Z,3.96
2023-01-17T17:13:49.054Z,3.94
2023-01-17T17:16:33.036Z,3.91
2023-01-17T17:19:03.787Z,3.88
2023-01-17T17:21:35.315Z,3.88
2023-01-17T17:24:03.850Z,3.85
2023-01-17T17:26:35.792Z,3.82
2023-01-17T17:29:05.533Z,3.81
2023-01-17T17:31:33.503Z,3.77
2023-01-17T17:34:05.145Z,3.80
2023-01-17T17:36:32.712Z,3.78
2023-01-17T17:39:02.308Z,3.80
2023-01-17T17:41:34.601Z,3.79
2023-01-17T17:44:05.241Z,3.77
2023-01-17T17:46:33.942Z,3.76
2023-01-17T17:49:02.230Z,3.77
2023-01-17T17:51:32.633Z,3.79
2023-01-17T17:54:05.449Z,3.78
2023-01-17T17:56:33.534Z,3.74
2023-01-17T17:59:02.430Z,3.74
2023-01-17T18:01:32.955Z,3.75
2023-01-17T18:04:04.612Z,3.74
2023-01-17T18:06:36.020Z,3.70
2023-01-17T18:09:05.819Z,3.69
2023-01-17T18:11:34.371Z,3.71
2023-01-17T18:14:03.727Z,3.69
2023-01-17T18:16:41.890Z,3.70
2023-01-17T18:19:16.172Z,3.69
2023-01-17T18:21:46.772Z,3.66
2023-01-17T18:24:20.080Z,3.64
2023-01-17T18:26:52.950Z,3.64
2023-01-17T18:29:22.732Z,3.62
2023-01-17T18:31:54.106Z,3.61
2023-01-17T18:34:24.455Z,3.60
2023-01-17T18:36:52.606Z,3.58
2023-01-17T18:39:24.859Z,3.59
2023-01-17T18:41:55.351Z,3.58
2023-01-17T18:44:23.781Z,3.58
2023-01-17T18:46:53.566Z,3.57
2023-01-17T18:49:23.271Z,3.55
2023-01-17T18:51:51.660Z,3.55
2023-01-17T18:54:23.836Z,3.53
2023-01-17T18:56:55.018Z,3.54
2023-01-17T18:59:23.628Z,3.53
2023-01-17T19:01:53.658Z,3.53
2023-01-17T19:04:22.168Z,3.50
2023-01-17T19:06:56.936Z,3.51
2023-01-17T19:09:25.163Z,3.47
2023-01-17T19:11:53.049Z,3.50
2023-01-17T19:14:21.269Z,3.50
2023-01-17T19:16:49.056Z,3.50
2023-01-17T19:19:22.493Z,3.50
2023-01-17T19:21:54.316Z,3.46
2023-01-17T19:24:22.765Z,3.47
2023-01-17T19:26:56.157Z,3.46
2023-01-17T19:29:24.470Z,3.44
2023-01-17T19:31:52.333Z,3.44
2023-01-17T19:34:21.847Z,3.41
2023-01-17T19:36:55.098Z,3.42
2023-01-17T19:39:26.001Z,3.40
2023-01-17T19:41:53.923Z,3.40
2023-01-17T19:44:22.190Z,3.36
2023-01-17T19:46:50.086Z,3.36
2023-01-17T19:49:24.535Z,3.37
2023-01-17T19:51:52.964Z,3.38
2023-01-17T19:54:21.047Z,3.38
2023-01-17T19:56:50.351Z,3.36
2023-01-17T19:59:21.052Z,3.36
2023-01-17T20:01:49.871Z,3.41
2023-01-17T20:04:25.513Z,3.37
2023-01-17T20:06:54.114Z,3.38
2023-01-17T20:09:24.949Z,3.37
2023-01-17T20:11:54.151Z,3.35
2023-01-17T20:14:22.949Z,3.37
2023-01-17T20:16:52.813Z,3.34
2023-01-17T20:19:21.353Z,3.35
2023-01-17T20:21:49.299Z,3.35
2023-01-17T20:24:17.346Z,3.35
2023-01-17T20:26:44.976Z,3.33
2023-01-17T20:29:15.425Z,3.37
2023-01-17T20:31:45.855Z,3.37
2023-01-17T20:34:19.811Z,3.37
2023-01-17T20:36:49.087Z,3.37
2023-01-17T20:39:16.796Z,3.33
2023-01-17T20:41:49.401Z,3.32
2023-01-17T20:44:19.689Z,3.30
2023-01-17T20:46:48.452Z,3.29
2023-01-17T20:49:19.093Z,3.27
2023-01-17T20:51:49.086Z,3.29
2023-01-17T20:54:18.751Z,3.25
2023-01-17T20:56:49.510Z,3.22
2023-01-17T20:59:20.813Z,3.19
2023-01-17T21:01:49.670Z,3.12
2023-01-17T21:04:20.157Z,3.09
2023-01-17T21:07:01.490Z,3.02
2023-01-17T21:09:32.430Z,2.97
2023-01-17T21:12:01.447Z,2.91
2023-01-17T21:14:47.045Z,2.87
2023-01-17T21:17:16.449Z,2.85
2023-01-17T21:19:45.012Z,2.84
2023-01-17T21:22:37.597Z,2.84
2023-01-17T21:25:05.954Z,2.85
2023-01-17T21:27:33.276Z,2.86
2023-01-17T21:30:00.976Z,2.89
2023-01-17T21:32:33.119Z,2.88
2023-01-17T21:35:03.461Z,2.90
2023-01-17T21:37:30.432Z,2.85
2023-01-17T21:39:57.776Z,2.81
2023-01-17T21:42:24.794Z,2.82
2023-01-17T21:44:52.211Z,2.83
2023-01-17T21:47:22.190Z,2.85
2023-01-17T21:49:51.899Z,2.88
2023-01-17T21:52:19.258Z,2.88
2023-01-17T21:55:07.204Z,2.84
2023-01-17T21:57:52.615Z,2.77
2023-01-17T22:00:20.021Z,2.72
2023-01-17T22:02:48.269Z,2.66
2023-01-17T22:05:19.737Z,2.72
2023-01-17T22:08:05.835Z,2.69
2023-01-17T22:10:33.311Z,2.65
2023-01-17T22:13:00.332Z,2.66
2023-01-17T22:15:27.671Z,2.66
2023-01-17T22:17:57.785Z,2.61
2023-01-17T22:20:25.630Z,2.66
2023-01-17T22:22:52.652Z,2.63
2023-01-17T22:25:26.311Z,2.61
2023-01-17T22:27:58.043Z,2.64
2023-01-17T22:30:25.594Z,2.63
2023-01-17T22:32:52.649Z,2.64
2023-01-17T22:35:20.039Z,2.63
2023-01-17T22:37:57.705Z,2.65
2023-01-17T22:40:32.998Z,2.65
2023-01-17T22:43:00.258Z,2.68
2023-01-17T22:45:29.086Z,2.67
2023-01-17T22:47:56.330Z,2.67
2023-01-17T22:50:23.959Z,2.66
2023-01-17T22:52:51.073Z,2.67
2023-01-17T22:55:18.428Z,2.66
2023-01-17T22:57:48.935Z,2.66
2023-01-17T23:00:16.684Z,2.63
2023-01-17T23:02:43.909Z,2.65
2023-01-17T23:05:11.498Z,2.64
2023-01-17T23:07:44.539Z,2.55
2023-01-17T23:10:33.953Z,2.55
2023-01-17T23:13:00.894Z,2.57
2023-01-17T23:15:46.891Z,2.51
2023-01-17T23:18:32.676Z,2.51
2023-01-17T23:20:59.941Z,2.50
2023-01-17T23:23:27.272Z,2.41
2023-01-17T23:25:59.726Z,2.37
2023-01-17T23:28:26.790Z,2.35
2023-01-17T23:30:54.041Z,2.34
2023-01-17T23:33:21.267Z,2.33
2023-01-17T23:35:51.033Z,2.33
2023-01-17T23:38:33.968Z,2.30
2023-01-17T23:41:25.129Z,2.26
2023-01-17T23:43:58.996Z,2.23
2023-01-17T23:46:27.186Z,2.21
2023-01-17T23:48:56.620Z,2.20
2023-01-17T23:51:23.897Z,2.17
2023-01-17T23:53:55.271Z,2.17
2023-01-17T23:56:24.877Z,2.19
2023-01-17T23:58:54.085Z,2.20
